Flight Track Log - Related Links

Times and Time Zones

All times are in EDT time to prevent confusion due to time zone crossing. See the N40BZ flight status page for this flight to view local times or setup timezone preferences in your user account.

Time Position Orientation Groundspeed Altitude Reporting Facility
EDT Latitude Longitude Course Direction KTS MPH feet Rate Location/Type
Sat 04:09:19 PM 44.7667 -78.6000 180° South 170 196 6,900  Level Toronto Center
Sat 04:10:19 PM 44.7167 -78.6000 180° South 170 196 6,900 50 Level Toronto Center
Sat 04:11:19 PM 44.6833 -78.6000 180° South 160 184 7,000 50 Climbing Toronto Center
Sat 04:12:19 PM 44.6333 -78.6000 180° South 160 184 7,000  Level Toronto Center
Sat 04:14:19 PM 44.5500 -78.6000 180° South 160 184 7,000  Level Toronto Center
Sat 04:15:19 PM 44.5000 -78.6000 180° South 160 184 7,000  Level Toronto Center
Sat 04:16:19 PM 44.4500 -78.6000 180° South 160 184 7,000  Level Toronto Center
Sat 04:17:19 PM 44.4167 -78.6000 180° South 160 184 7,000  Level Toronto Center
Sat 04:18:19 PM 44.3667 -78.6000 180° South 150 173 7,000  Level Toronto Center
Sat 04:19:19 PM 44.3333 -78.6333 216° Southwest 160 184 7,000  Level Toronto Center
Sat 04:20:19 PM 44.2833 -78.6333 180° South 160 184 7,000  Level Toronto Center
Sat 04:21:19 PM 44.2500 -78.6333 180° South 150 173 7,000  Level Toronto Center
Sat 04:22:19 PM 44.2000 -78.6333 180° South 150 173 7,000  Level Toronto Center
Sat 04:23:19 PM 44.1500 -78.6333 180° South 150 173 7,000  Level Toronto Center
Sat 04:24:19 PM 44.1167 -78.6333 180° South 150 173 7,000  Level Toronto Center
Sat 04:25:19 PM 44.0667 -78.6500 193° South 160 184 7,000  Level Toronto Center
Sat 04:26:19 PM 44.0333 -78.6667 200° South 160 184 7,000  Level Toronto Center
Sat 04:27:19 PM 43.9833 -78.6833 193° South 160 184 7,000  Level Toronto Center
Sat 04:28:19 PM 43.9500 -78.7000 200° South 160 184 7,000  Level Toronto Center
Sat 04:29:19 PM 43.9000 -78.7333 206° Southwest 160 184 7,000  Level Toronto Center
Sat 04:30:19 PM 43.8667 -78.7500 200° South 160 184 7,000  Level Toronto Center
Sat 04:31:19 PM 43.8167 -78.7500 180° South 160 184 7,000  Level Toronto Center
Sat 04:32:19 PM 43.7833 -78.7833 216° Southwest 160 184 7,000  Level Toronto Center
Sat 04:33:19 PM 43.7333 -78.8000 194° South 160 184 7,000  Level Toronto Center
Sat 04:34:19 PM 43.7000 -78.8000 180° South 150 173 7,000  Level Toronto Center
Sat 04:35:19 PM 43.6500 -78.8000 180° South 150 173 7,000  Level Toronto Center
Sat 04:36:19 PM 43.6167 -78.8000 180° South 150 173 7,000  Level Toronto Center
Sat 04:37:19 PM 43.5667 -78.8000 180° South 150 173 7,000  Level Toronto Center
Sat 04:38:19 PM 43.5167 -78.7833 166° South 150 173 7,000  Level Toronto Center
Sat 04:39:19 PM 43.4833 -78.7833 180° South 150 173 7,000  Level Toronto Center
Sat 04:40:19 PM 43.4500 -78.7833 180° South 150 173 7,000 50 Level Toronto Center
Sat 04:41:19 PM 43.4000 -78.7833 180° South 150 173 7,100 50 Climbing Toronto Center
Sat 04:42:19 PM 43.3667 -78.7667 160° South 150 173 7,100  Level Toronto Center
Sat 04:43:19 PM 43.3167 -78.7667 180° South 150 173 7,100  Level Toronto Center
Sat 04:44:19 PM 43.2833 -78.7667 180° South 150 173 7,100 -500 Level Toronto Center
Sat 04:45:19 PM 43.2333 -78.7667 180° South 160 184 6,100 -600 Descending Toronto Center
Sat 04:46:19 PM 43.2000 -78.7833 200° South 160 184 5,900 -500 Descending Toronto Center
Sat 04:47:19 PM 43.1500 -78.7833 180° South 160 184 5,100 -550 Descending Toronto Center
Sat 04:48:19 PM 43.1167 -78.8167 216° Southwest 160 184 4,800 -550 Descending Toronto Center
Sat 04:49:19 PM 43.0667 -78.8333 194° South 170 196 4,000 -550 Descending Toronto Center
Sat 04:50:19 PM 43.0333 -78.8500 200° South 160 184 3,700 -467 Descending Toronto Center
Sat 04:52:19 PM 42.9667 -78.8333 170° South 180 207 2,600 -733 Descending Toronto Center
Sat 04:53:19 PM 42.9667 -78.7667 90° East 170 196 1,500 -777 Descending Toronto Center
Sat 04:54:38 PM 42.9500 -78.7333 124° Southeast 93 107 800 -532 Descending Buffalo TRACON

Login

Don't have an account? Register now (free) for customized features, flight alerts, and more!